Time;durP1;ratioP1;P1;durP2;ratioP2;P2;SDS_P1;SDS_P2;PMS_P1;PMS_P2;Temp;Humidity;BMP_temperature;BMP_pressure;BME280_temperature;BME280_humidity;BME280_pressure;Samples;Min_cycle;Max_cycle;Signal;HPM_P1;HPM_P2
2022/01/14 00:01:38;;;;;;;11.55;3.60;;;20.10;54.70;;;;;;4481157;32;20143;-69
2022/01/14 00:04:04;;;;;;;10.05;3.33;;;20.10;54.70;;;;;;4481903;31;20598;-69
2022/01/14 00:06:30;;;;;;;11.52;3.50;;;20.10;54.70;;;;;;4481163;31;20129;-69
2022/01/14 00:09:04;;;;;;;8.15;3.15;;;20.10;54.70;;;;;;4481605;32;20143;-69
2022/01/14 00:11:31;;;;;;;8.18;3.05;;;20.10;54.70;;;;;;4481639;31;20140;-69
2022/01/14 00:16:29;;;;;;;7.60;3.20;;;20.00;54.70;;;;;;4479580;32;20164;-69
2022/01/14 00:18:57;;;;;;;12.75;3.63;;;20.00;54.70;;;;;;4479805;31;20140;-69
2022/01/14 00:21:24;;;;;;;6.90;2.70;;;20.00;54.70;;;;;;4480185;31;20153;-69
2022/01/14 00:23:53;;;;;;;7.47;3.03;;;20.00;54.70;;;;;;4479767;32;20137;-69
2022/01/14 00:31:56;;;;;;;9.82;3.38;;;19.90;54.60;;;;;;4479489;32;20163;-69
2022/01/14 00:34:21;;;;;;;8.45;3.03;;;19.90;54.60;;;;;;4477861;32;20137;-69
2022/01/14 00:36:47;;;;;;;6.70;2.55;;;19.90;54.60;;;;;;4480117;32;20121;-70
2022/01/14 00:39:14;;;;;;;8.60;3.00;;;19.90;54.60;;;;;;4491216;31;20160;-69
2022/01/14 00:41:41;;;;;;;8.52;2.67;;;19.80;54.60;;;;;;4489797;31;20155;-70
2022/01/14 00:44:11;;;;;;;9.98;2.90;;;19.80;54.60;;;;;;4479511;31;20140;-70
2022/01/14 00:46:43;;;;;;;6.60;2.78;;;19.80;54.60;;;;;;4479836;31;20121;-70
2022/01/14 00:49:10;;;;;;;7.03;2.42;;;19.80;54.60;;;;;;4479847;31;20125;-69
2022/01/14 00:51:36;;;;;;;9.55;2.58;;;19.80;54.70;;;;;;4480688;31;20124;-69
2022/01/14 00:54:04;;;;;;;8.13;2.45;;;19.80;54.70;;;;;;4493386;31;20580;-69
2022/01/14 00:56:34;;;;;;;7.85;2.72;;;19.70;54.70;;;;;;4480447;31;20230;-69
2022/01/14 00:59:16;;;;;;;7.47;2.75;;;19.70;55.70;;;;;;4492923;31;20133;-69
2022/01/14 01:01:46;;;;;;;6.93;3.13;;;19.70;54.80;;;;;;4478779;32;20538;-69
2022/01/14 01:04:13;;;;;;;4.97;2.53;;;19.70;54.80;;;;;;4489263;31;20226;-70
2022/01/14 01:06:40;;;;;;;8.02;2.30;;;19.70;54.80;;;;;;4479486;32;20128;-70
2022/01/14 01:09:11;;;;;;;7.82;3.28;;;19.70;54.80;;;;;;4491623;31;20168;-70
2022/01/14 01:11:43;;;;;;;7.88;2.80;;;19.70;54.80;;;;;;4480035;31;20633;-70
2022/01/14 01:14:16;;;;;;;8.85;2.80;;;19.70;54.80;;;;;;4479536;31;20225;-69
2022/01/14 01:16:43;;;;;;;8.02;2.47;;;19.60;54.80;;;;;;4479984;31;20262;-69
2022/01/14 01:19:09;;;;;;;6.65;2.42;;;19.60;54.80;;;;;;4479461;32;20172;-69
2022/01/14 01:21:35;;;;;;;5.00;2.20;;;19.60;54.80;;;;;;4477058;32;20246;-70
2022/01/14 01:24:01;;;;;;;5.43;2.30;;;19.60;54.80;;;;;;4480294;31;20262;-70
2022/01/14 01:26:39;;;;;;;5.45;2.08;;;19.60;54.80;;;;;;4479242;31;20419;-69
2022/01/14 01:31:40;;;;;;;5.97;2.20;;;19.50;54.80;;;;;;4476415;32;20117;-68
2022/01/14 01:34:20;;;;;;;6.45;2.30;;;19.50;54.80;;;;;;4479741;31;20315;-69
2022/01/14 01:36:49;;;;;;;7.05;2.40;;;19.50;54.80;;;;;;4479235;31;20513;-69
2022/01/14 01:39:18;;;;;;;5.55;2.22;;;19.50;54.80;;;;;;4479327;32;20136;-69
2022/01/14 01:41:47;;;;;;;5.22;2.22;;;19.50;54.80;;;;;;4477386;31;20153;-68
2022/01/14 01:44:15;;;;;;;6.78;2.22;;;19.50;54.80;;;;;;4477460;32;20121;-69
2022/01/14 01:46:43;;;;;;;6.22;2.05;;;19.50;54.80;;;;;;4478754;32;20195;-69
2022/01/14 01:49:10;;;;;;;5.80;2.08;;;19.50;54.80;;;;;;4489635;31;20486;-69
2022/01/14 01:51:37;;;;;;;5.65;2.40;;;19.50;54.80;;;;;;4475771;32;20152;-69
2022/01/14 01:54:03;;;;;;;5.97;2.10;;;19.40;54.70;;;;;;4478618;32;20137;-69
2022/01/14 01:56:31;;;;;;;5.68;2.13;;;19.50;54.80;;;;;;4478908;32;20265;-68
2022/01/14 01:58:57;;;;;;;7.70;2.30;;;19.40;54.80;;;;;;4478815;32;20156;-69
2022/01/14 02:01:25;;;;;;;5.88;2.08;;;19.40;54.80;;;;;;4477066;32;20266;-69
2022/01/14 02:03:52;;;;;;;6.18;2.17;;;19.40;54.80;;;;;;4470260;32;20133;-69
2022/01/14 02:06:20;;;;;;;4.63;2.10;;;19.40;54.80;;;;;;4491569;31;20616;-69
2022/01/14 02:08:47;;;;;;;4.47;1.83;;;19.40;54.80;;;;;;4479535;32;20497;-70
2022/01/14 02:11:13;;;;;;;5.50;2.13;;;19.40;54.80;;;;;;4478982;32;20113;-70
2022/01/14 02:13:40;;;;;;;4.95;2.00;;;19.40;54.80;;;;;;4479187;32;20207;-70
2022/01/14 02:16:17;;;;;;;6.47;2.13;;;19.40;54.80;;;;;;4479879;32;20206;-70
2022/01/14 02:19:12;;;;;;;5.45;2.08;;;19.30;54.80;;;;;;4478168;32;20137;-69
2022/01/14 02:26:51;;;;;;;3.72;1.98;;;19.30;54.80;;;;;;4476784;32;20635;-69
2022/01/14 02:29:18;;;;;;;3.70;1.75;;;19.30;54.80;;;;;;4477786;32;20262;-69
2022/01/14 02:31:58;;;;;;;3.95;1.80;;;19.30;54.80;;;;;;4481377;31;20125;-68
2022/01/14 02:34:25;;;;;;;5.38;2.17;;;19.30;54.70;;;;;;4479923;32;20175;-69
2022/01/14 02:36:52;;;;;;;2.80;1.50;;;19.30;54.80;;;;;;4491618;31;20530;-69
2022/01/14 02:39:20;;;;;;;3.63;1.58;;;19.20;54.80;;;;;;4481248;32;20143;-69
2022/01/14 02:41:48;;;;;;;6.38;2.33;;;19.30;54.80;;;;;;4481110;31;20136;-69
2022/01/14 02:44:24;;;;;;;4.63;2.10;;;19.20;54.70;;;;;;4481196;31;20156;-69
2022/01/14 02:46:56;;;;;;;3.80;1.50;;;19.20;54.60;;;;;;4480543;32;20237;-69
2022/01/14 02:49:28;;;;;;;3.88;1.60;;;19.20;54.70;;;;;;4481801;31;20149;-69
2022/01/14 02:51:55;;;;;;;3.83;1.83;;;19.30;54.70;;;;;;4492990;31;20145;-70
2022/01/14 02:54:23;;;;;;;4.07;1.65;;;19.20;54.70;;;;;;4481537;31;20129;-69
2022/01/14 02:56:52;;;;;;;4.57;2.00;;;19.20;54.60;;;;;;4479769;32;20143;-69
2022/01/14 02:59:20;;;;;;;3.55;1.65;;;19.20;54.70;;;;;;4481358;31;20140;-69
2022/01/14 03:01:47;;;;;;;3.80;1.60;;;19.20;54.70;;;;;;4498067;31;20113;-69
2022/01/14 03:04:16;;;;;;;3.50;1.98;;;19.20;54.70;;;;;;4498488;31;20132;-69
2022/01/14 03:06:43;;;;;;;5.13;2.10;;;19.20;54.70;;;;;;4498253;31;20225;-69
2022/01/14 03:09:09;;;;;;;3.50;2.00;;;19.20;54.70;;;;;;4498256;31;20644;-69
2022/01/14 03:11:52;;;;;;;6.30;1.90;;;19.20;54.70;;;;;;4498688;31;20189;-69
2022/01/14 03:14:22;;;;;;;3.03;1.60;;;19.20;54.60;;;;;;4498402;31;20124;-69
2022/01/14 03:16:49;;;;;;;4.60;1.50;;;19.20;54.70;;;;;;4498267;31;20120;-68
2022/01/14 03:19:25;;;;;;;5.47;1.70;;;19.20;54.70;;;;;;4498428;31;20135;-69
2022/01/14 03:22:03;;;;;;;4.35;1.77;;;19.10;54.70;;;;;;4497792;31;20136;-69
2022/01/14 03:27:01;;;;;;;4.18;1.63;;;19.10;54.70;;;;;;4497725;31;20128;-69
2022/01/14 03:29:27;;;;;;;4.15;1.58;;;19.10;54.70;;;;;;4498421;31;20108;-69
2022/01/14 03:31:53;;;;;;;3.92;1.50;;;19.10;54.60;;;;;;4497782;31;20129;-68
2022/01/14 03:34:19;;;;;;;3.58;1.92;;;19.10;54.70;;;;;;4497946;31;20140;-69
2022/01/14 03:36:46;;;;;;;3.33;1.45;;;19.10;54.70;;;;;;4497945;31;20182;-69
2022/01/14 03:39:12;;;;;;;4.57;1.75;;;19.10;54.70;;;;;;4496550;31;20143;-69
2022/01/14 03:41:38;;;;;;;2.95;1.30;;;19.00;54.60;;;;;;4497297;31;20132;-69
2022/01/14 03:44:04;;;;;;;4.63;1.60;;;19.00;55.60;;;;;;4496250;31;20105;-68
2022/01/14 03:46:30;;;;;;;2.70;1.42;;;19.00;54.60;;;;;;4497901;31;20151;-69
2022/01/14 03:48:56;;;;;;;3.33;1.60;;;19.00;54.60;;;;;;4497320;31;20118;-69
2022/01/14 03:51:23;;;;;;;3.65;1.70;;;19.00;54.60;;;;;;4497609;31;20583;-69
2022/01/14 03:53:49;;;;;;;3.03;1.55;;;19.00;54.60;;;;;;4496903;31;20737;-69
2022/01/14 03:56:16;;;;;;;5.60;1.73;;;19.00;54.60;;;;;;4497599;31;20137;-69
2022/01/14 03:58:43;;;;;;;5.60;1.55;;;19.00;54.60;;;;;;4497710;31;20121;-69
2022/01/14 04:01:11;;;;;;;4.35;1.63;;;19.00;54.60;;;;;;4497214;31;20187;-69
2022/01/14 04:03:37;;;;;;;3.67;1.92;;;19.00;54.60;;;;;;4497574;31;20680;-69
2022/01/14 04:06:04;;;;;;;3.58;1.63;;;19.00;54.60;;;;;;4496135;31;20148;-69
2022/01/14 04:08:30;;;;;;;2.80;1.35;;;19.00;54.60;;;;;;4497361;31;20143;-69
2022/01/14 04:10:58;;;;;;;4.25;1.63;;;18.90;54.60;;;;;;4496351;31;20128;-68
2022/01/14 04:13:38;;;;;;;4.47;2.00;;;18.90;54.60;;;;;;4497171;31;20242;-69
2022/01/14 04:16:04;;;;;;;3.90;1.70;;;18.90;54.60;;;;;;4497329;31;20140;-69
2022/01/14 04:18:30;;;;;;;3.95;1.45;;;18.90;54.50;;;;;;4497040;31;20133;-69
2022/01/14 04:20:56;;;;;;;4.07;1.80;;;18.90;54.60;;;;;;4497472;31;20141;-68
2022/01/14 04:23:23;;;;;;;5.20;1.90;;;18.90;54.60;;;;;;4497117;31;20186;-69
2022/01/14 04:25:53;;;;;;;4.78;1.85;;;18.90;54.60;;;;;;4496098;31;20163;-69
2022/01/14 04:28:21;;;;;;;3.90;1.40;;;18.90;54.60;;;;;;4497515;31;20149;-69
2022/01/14 04:30:48;;;;;;;3.17;1.40;;;18.90;54.70;;;;;;4497047;31;20136;-69
2022/01/14 04:33:14;;;;;;;4.05;1.40;;;18.90;54.70;;;;;;4497172;31;20336;-69
2022/01/14 04:35:40;;;;;;;2.67;1.27;;;18.90;54.70;;;;;;4496581;31;20143;-69
2022/01/14 04:38:07;;;;;;;3.90;1.70;;;18.90;54.70;;;;;;4496096;31;20166;-69
2022/01/14 04:40:33;;;;;;;5.05;1.67;;;18.90;54.70;;;;;;4496923;31;20125;-69
2022/01/14 04:43:00;;;;;;;3.72;1.52;;;18.90;54.70;;;;;;4496787;31;20190;-69
2022/01/14 04:48:12;;;;;;;3.78;1.48;;;18.90;54.70;;;;;;4471709;31;20120;-69
2022/01/14 04:50:39;;;;;;;3.05;1.35;;;18.80;54.60;;;;;;4496976;31;20178;-69
2022/01/14 04:53:08;;;;;;;4.43;1.73;;;18.80;54.60;;;;;;4496102;31;20259;-68
2022/01/14 04:55:34;;;;;;;4.38;1.42;;;18.80;54.60;;;;;;4496813;31;20116;-69
2022/01/14 04:58:00;;;;;;;3.10;1.60;;;18.80;54.70;;;;;;4495548;31;20109;-69
2022/01/14 05:00:30;;;;;;;3.28;1.35;;;18.80;54.70;;;;;;4496196;31;20124;-69
2022/01/14 05:02:56;;;;;;;3.78;1.63;;;18.80;54.60;;;;;;4496689;31;20237;-69
2022/01/14 05:05:29;;;;;;;3.92;1.20;;;18.80;54.60;;;;;;4496495;31;20258;-69
2022/01/14 05:07:55;;;;;;;3.05;1.20;;;18.80;54.60;;;;;;4497142;31;20624;-69
2022/01/14 05:12:56;;;;;;;3.40;1.45;;;18.80;54.80;;;;;;4496664;31;20121;-69
2022/01/14 05:15:23;;;;;;;3.40;1.27;;;18.70;54.60;;;;;;4496491;31;20140;-69
2022/01/14 05:17:50;;;;;;;3.63;1.50;;;18.70;54.60;;;;;;4496213;31;20242;-69
2022/01/14 05:20:17;;;;;;;4.07;1.60;;;18.70;54.60;;;;;;4495245;31;20128;-69
2022/01/14 05:22:44;;;;;;;3.00;1.27;;;18.70;54.60;;;;;;4496077;31;20145;-69
2022/01/14 05:25:13;;;;;;;1.98;1.05;;;18.70;54.60;;;;;;4496609;31;21162;-69
2022/01/14 05:27:41;;;;;;;4.18;1.58;;;18.70;54.70;;;;;;4496231;31;20113;-69
2022/01/14 05:30:09;;;;;;;2.28;1.38;;;18.70;54.70;;;;;;4496092;31;20761;-69
2022/01/14 05:32:35;;;;;;;2.35;1.20;;;18.70;54.70;;;;;;4496577;31;20143;-68
2022/01/14 05:35:02;;;;;;;3.00;1.23;;;18.70;54.70;;;;;;4496183;31;20180;-69
2022/01/14 05:37:28;;;;;;;2.63;1.40;;;18.70;54.70;;;;;;4494980;31;20529;-69
2022/01/14 05:39:57;;;;;;;2.60;1.20;;;18.60;54.60;;;;;;4495207;31;20140;-69
2022/01/14 05:42:22;;;;;;;2.80;1.40;;;18.70;54.70;;;;;;4494882;31;20151;-69
2022/01/14 05:44:48;;;;;;;2.38;1.27;;;18.60;54.70;;;;;;4495122;31;20125;-69
2022/01/14 05:47:14;;;;;;;2.35;1.15;;;18.60;54.70;;;;;;4495778;31;20674;-68
2022/01/14 05:49:40;;;;;;;3.15;1.38;;;18.60;54.70;;;;;;4496269;31;20125;-69
2022/01/14 05:52:06;;;;;;;2.47;1.35;;;18.60;54.70;;;;;;4495706;31;20499;-69
2022/01/14 05:54:32;;;;;;;4.32;1.65;;;18.60;54.70;;;;;;4478998;31;20163;-69
2022/01/14 05:56:58;;;;;;;3.28;1.40;;;18.60;54.70;;;;;;4477982;32;20136;-69
2022/01/14 05:59:24;;;;;;;2.78;1.20;;;18.60;54.70;;;;;;4478129;32;20121;-69
2022/01/14 06:01:50;;;;;;;3.00;1.17;;;18.60;54.70;;;;;;4477876;32;20121;-69
2022/01/14 06:04:15;;;;;;;2.53;1.08;;;18.60;54.70;;;;;;4477423;32;20121;-68
2022/01/14 06:06:41;;;;;;;2.85;1.40;;;18.60;54.70;;;;;;4478463;32;20121;-68
2022/01/14 06:09:07;;;;;;;2.97;1.30;;;18.60;54.70;;;;;;4479146;32;20340;-69
2022/01/14 06:11:33;;;;;;;2.35;1.30;;;18.60;54.70;;;;;;4491376;32;20121;-69
2022/01/14 06:13:59;;;;;;;3.20;1.48;;;18.60;54.70;;;;;;4477458;32;20132;-69
2022/01/14 06:16:25;;;;;;;2.63;1.20;;;18.60;54.70;;;;;;4479668;32;20179;-70
2022/01/14 06:18:52;;;;;;;2.42;1.30;;;18.60;54.70;;;;;;4478496;32;20139;-69
2022/01/14 06:21:18;;;;;;;3.40;1.20;;;18.60;54.70;;;;;;4476760;32;20125;-68
2022/01/14 06:23:44;;;;;;;2.58;1.20;;;18.50;54.60;;;;;;4491249;32;20121;-69
2022/01/14 06:26:09;;;;;;;3.10;1.10;;;18.50;54.70;;;;;;4478897;32;20125;-69
2022/01/14 06:28:35;;;;;;;3.17;1.60;;;18.50;54.70;;;;;;4464981;32;20151;-69
2022/01/14 06:31:02;;;;;;;2.88;1.13;;;18.50;54.70;;;;;;4479816;32;20133;-69
2022/01/14 06:33:27;;;;;;;2.80;1.25;;;18.50;54.70;;;;;;4478947;32;20136;-69
2022/01/14 06:35:53;;;;;;;2.30;1.20;;;18.50;54.80;;;;;;4479912;32;20131;-69
2022/01/14 06:38:20;;;;;;;3.33;1.25;;;18.50;54.70;;;;;;4479713;32;20298;-68
2022/01/14 06:40:47;;;;;;;3.42;1.40;;;18.50;54.80;;;;;;4492143;32;20562;-68
2022/01/14 06:43:17;;;;;;;2.22;1.02;;;18.50;54.70;;;;;;4479732;32;20125;-69
2022/01/14 06:45:43;;;;;;;3.13;1.27;;;18.50;54.70;;;;;;4492085;32;20202;-69
2022/01/14 06:48:09;;;;;;;2.75;1.40;;;18.50;54.80;;;;;;4491843;32;20608;-69
2022/01/14 06:50:36;;;;;;;3.63;1.38;;;18.50;54.80;;;;;;4479871;32;20125;-69
2022/01/14 06:53:03;;;;;;;1.92;1.10;;;18.50;54.80;;;;;;4478639;32;20143;-69
2022/01/14 06:55:29;;;;;;;2.72;1.40;;;18.50;54.80;;;;;;4478565;32;20145;-69
2022/01/14 06:57:55;;;;;;;2.20;1.30;;;18.40;54.70;;;;;;4478964;32;20210;-69
2022/01/14 07:00:21;;;;;;;2.97;1.20;;;18.40;54.70;;;;;;4491251;32;20187;-69
2022/01/14 07:02:48;;;;;;;3.53;1.20;;;18.40;54.70;;;;;;4492017;32;20133;-68
2022/01/14 07:05:14;;;;;;;2.33;1.20;;;18.40;54.70;;;;;;4479706;32;20182;-68
2022/01/14 07:07:40;;;;;;;2.72;0.95;;;18.40;54.80;;;;;;4479831;32;20105;-69
2022/01/14 07:10:07;;;;;;;3.78;1.20;;;18.40;54.80;;;;;;4479511;32;20129;-69
2022/01/14 07:12:36;;;;;;;3.03;1.30;;;18.40;54.80;;;;;;4479760;32;20156;-68
2022/01/14 07:15:04;;;;;;;2.80;1.17;;;18.40;54.80;;;;;;4480082;32;20152;-69
2022/01/14 07:17:30;;;;;;;2.88;1.25;;;18.40;54.80;;;;;;4481850;32;20141;-68
2022/01/14 07:20:00;;;;;;;2.78;1.30;;;18.40;54.80;;;;;;4468694;32;20125;-69
2022/01/14 07:22:26;;;;;;;2.83;1.20;;;18.40;54.80;;;;;;4482054;31;20192;-69
2022/01/14 07:24:52;;;;;;;3.22;1.02;;;18.40;54.80;;;;;;4481670;32;20250;-69
2022/01/14 07:27:18;;;;;;;3.40;1.40;;;18.40;54.80;;;;;;4482060;32;20113;-69
2022/01/14 07:29:44;;;;;;;2.60;1.00;;;18.30;54.80;;;;;;4482409;31;20117;-69
2022/01/14 07:32:10;;;;;;;2.55;1.25;;;18.30;54.80;;;;;;4481565;32;20144;-69
2022/01/14 07:34:36;;;;;;;2.08;0.85;;;18.30;54.80;;;;;;4480697;32;20163;-69
2022/01/14 07:37:02;;;;;;;1.88;1.00;;;18.30;54.80;;;;;;4482541;32;20226;-69
2022/01/14 07:39:28;;;;;;;3.58;1.38;;;18.30;54.80;;;;;;4481636;32;20132;-68
2022/01/14 07:41:55;;;;;;;3.20;1.20;;;18.30;54.80;;;;;;4482422;32;20147;-69
2022/01/14 07:44:21;;;;;;;2.47;1.10;;;18.30;54.80;;;;;;4480838;32;20112;-68
2022/01/14 07:46:48;;;;;;;2.85;1.38;;;18.30;54.80;;;;;;4481072;32;20121;-69
2022/01/14 07:49:14;;;;;;;2.65;1.27;;;18.30;54.80;;;;;;4481184;32;20147;-69
2022/01/14 07:51:40;;;;;;;4.30;1.10;;;18.30;54.80;;;;;;4481553;31;20666;-69
2022/01/14 07:54:07;;;;;;;2.63;1.17;;;18.30;54.90;;;;;;4482162;32;20129;-69
2022/01/14 07:56:38;;;;;;;2.95;1.10;;;18.30;54.80;;;;;;4467354;32;20187;-69
2022/01/14 07:59:06;;;;;;;3.00;1.20;;;18.30;54.80;;;;;;4481057;32;20144;-69
2022/01/14 08:01:35;;;;;;;2.38;1.15;;;18.30;54.80;;;;;;4480535;32;20136;-69
2022/01/14 08:04:05;;;;;;;2.58;1.20;;;18.30;54.90;;;;;;4481928;31;20176;-69
2022/01/14 08:06:33;;;;;;;2.85;1.35;;;18.20;54.80;;;;;;4480608;32;20133;-68
2022/01/14 08:09:00;;;;;;;1.77;1.02;;;18.30;54.90;;;;;;4481545;31;20137;-69
2022/01/14 08:11:25;;;;;;;3.58;1.35;;;18.30;54.90;;;;;;4481969;31;20587;-69
2022/01/14 08:13:51;;;;;;;2.78;1.02;;;18.20;54.90;;;;;;4481153;32;20597;-69
2022/01/14 08:16:17;;;;;;;2.72;1.17;;;18.30;54.90;;;;;;4481843;32;20144;-69
2022/01/14 08:18:43;;;;;;;3.60;1.20;;;18.20;54.80;;;;;;4481394;32;20125;-69
2022/01/14 08:21:09;;;;;;;2.95;1.00;;;18.20;54.80;;;;;;4480495;32;20573;-69
2022/01/14 08:23:35;;;;;;;4.13;1.30;;;18.20;54.80;;;;;;4481232;32;20251;-67
2022/01/14 08:26:01;;;;;;;3.55;1.15;;;18.20;54.90;;;;;;4481392;32;20259;-67
2022/01/14 08:28:27;;;;;;;5.07;1.40;;;18.20;54.80;;;;;;4481114;31;20113;-67
2022/01/14 08:30:53;;;;;;;5.75;1.67;;;18.20;54.40;;;;;;4481256;31;20097;-67
2022/01/14 08:33:19;;;;;;;9.50;1.85;;;18.20;53.90;;;;;;4480382;32;20116;-69
2022/01/14 08:35:46;;;;;;;5.05;1.70;;;18.20;53.50;;;;;;4480883;31;20175;-68
2022/01/14 08:38:13;;;;;;;6.20;1.60;;;18.10;53.80;;;;;;4481469;32;20570;-69
2022/01/14 08:40:40;;;;;;;6.28;1.65;;;18.10;54.00;;;;;;4481063;31;20271;-68
2022/01/14 08:43:07;;;;;;;7.20;1.50;;;18.10;54.40;;;;;;4479940;32;20152;-70
2022/01/14 08:45:33;;;;;;;6.43;1.50;;;18.10;54.40;;;;;;4480660;31;20278;-71
2022/01/14 08:48:00;;;;;;;5.47;1.75;;;18.10;54.40;;;;;;4479746;31;20675;-69
2022/01/14 08:50:34;;;;;;;6.68;1.60;;;18.10;54.50;;;;;;4478551;32;20133;-69
2022/01/14 08:53:00;;;;;;;8.73;1.90;;;18.10;54.50;;;;;;4478749;32;20187;-70
2022/01/14 08:55:26;;;;;;;7.28;1.83;;;18.10;54.50;;;;;;4452979;32;20137;-70
2022/01/14 08:57:53;;;;;;;7.18;1.63;;;18.10;54.60;;;;;;4479402;31;20159;-69
2022/01/14 09:00:22;;;;;;;7.88;1.88;;;18.20;54.50;;;;;;4479102;31;20195;-70
2022/01/14 09:02:48;;;;;;;12.68;1.73;;;18.20;54.50;;;;;;4479977;31;20131;-69
2022/01/14 09:05:14;;;;;;;5.70;1.50;;;18.20;54.40;;;;;;4479992;32;20124;-69
2022/01/14 09:07:40;;;;;;;6.65;1.60;;;18.30;54.40;;;;;;4470917;31;24043;-69
2022/01/14 09:10:07;;;;;;;6.50;1.50;;;18.40;54.40;;;;;;4478365;32;20139;-69
2022/01/14 09:12:34;;;;;;;6.45;1.60;;;18.40;54.20;;;;;;4491706;31;20163;-70
2022/01/14 09:15:00;;;;;;;5.20;1.58;;;18.60;54.20;;;;;;4479581;32;20132;-69
2022/01/14 09:17:27;;;;;;;11.60;1.77;;;18.60;53.90;;;;;;4477561;32;20147;-70
2022/01/14 09:19:54;;;;;;;6.57;2.03;;;18.80;53.70;;;;;;4478485;31;20215;-69
2022/01/14 09:22:20;;;;;;;6.13;1.83;;;18.90;53.50;;;;;;4478917;32;20570;-69
2022/01/14 09:24:47;;;;;;;6.15;1.33;;;19.00;53.20;;;;;;4466237;32;20133;-69
2022/01/14 09:27:14;;;;;;;5.70;1.73;;;19.10;52.90;;;;;;4479614;31;20637;-69
2022/01/14 09:29:42;;;;;;;5.97;1.63;;;19.20;52.70;;;;;;4492367;31;20742;-69
2022/01/14 09:32:09;;;;;;;6.68;1.58;;;19.40;52.40;;;;;;4480361;32;20798;-69
2022/01/14 09:34:36;;;;;;;6.00;1.85;;;19.50;52.20;;;;;;4491618;31;20129;-69
2022/01/14 09:37:03;;;;;;;6.07;1.67;;;19.60;52.10;;;;;;4479267;31;20333;-67
2022/01/14 09:39:31;;;;;;;3.92;1.10;;;19.70;51.80;;;;;;4477848;31;20165;-67
2022/01/14 09:42:00;;;;;;;5.90;1.40;;;19.80;51.70;;;;;;4478608;31;20129;-68
2022/01/14 09:44:27;;;;;;;5.43;1.40;;;19.90;51.60;;;;;;4477690;32;20152;-67
2022/01/14 09:46:54;;;;;;;6.18;1.90;;;20.00;51.70;;;;;;4478371;32;20148;-67
2022/01/14 09:49:20;;;;;;;9.25;1.60;;;20.10;51.50;;;;;;4479764;32;20179;-69
2022/01/14 09:51:46;;;;;;;6.15;1.33;;;20.20;51.40;;;;;;4490922;31;20739;-68
2022/01/14 09:54:12;;;;;;;4.25;1.40;;;20.30;51.40;;;;;;4492382;31;20147;-68
2022/01/14 09:56:39;;;;;;;7.28;1.40;;;20.40;51.40;;;;;;4479953;32;20124;-65
2022/01/14 09:59:06;;;;;;;7.88;1.58;;;20.40;51.30;;;;;;4492208;31;20227;-68
2022/01/14 10:01:41;;;;;;;6.88;1.52;;;20.50;51.20;;;;;;4479572;31;20156;-69
2022/01/14 10:04:17;;;;;;;15.95;1.52;;;20.60;50.80;;;;;;4479220;32;20160;-70
2022/01/14 10:06:52;;;;;;;5.53;1.50;;;20.60;50.40;;;;;;4479824;32;20606;-69
2022/01/14 10:09:24;;;;;;;6.53;1.60;;;20.70;50.30;;;;;;4479832;32;20262;-69
2022/01/14 10:12:04;;;;;;;4.85;1.50;;;20.80;50.10;;;;;;4480351;32;20148;-68
2022/01/14 10:14:31;;;;;;;8.07;1.60;;;20.90;50.00;;;;;;4479278;32;20601;-69
2022/01/14 10:16:59;;;;;;;5.47;1.40;;;21.00;49.90;;;;;;4479478;32;20259;-69
2022/01/14 10:19:30;;;;;;;4.45;1.20;;;21.10;49.70;;;;;;4479972;32;20145;-70
2022/01/14 10:21:57;;;;;;;4.28;1.27;;;21.20;49.60;;;;;;4478663;32;20140;-68
2022/01/14 10:24:26;;;;;;;6.65;1.70;;;21.30;49.40;;;;;;4479737;32;20576;-68
2022/01/14 10:26:56;;;;;;;5.07;1.33;;;21.30;49.30;;;;;;4477864;32;20132;-69
2022/01/14 10:29:32;;;;;;;6.75;1.23;;;21.40;49.20;;;;;;4476478;32;20612;-68
2022/01/14 10:32:00;;;;;;;3.15;1.10;;;21.40;49.20;;;;;;4478146;32;20137;-68
2022/01/14 10:34:26;;;;;;;4.00;1.30;;;21.50;49.20;;;;;;4479926;32;20210;-67
2022/01/14 10:37:08;;;;;;;6.22;1.30;;;21.40;49.10;;;;;;4479734;32;20271;-67
2022/01/14 10:39:34;;;;;;;3.50;1.20;;;21.40;49.20;;;;;;4479451;32;20145;-67
2022/01/14 10:42:00;;;;;;;6.30;1.40;;;21.30;49.20;;;;;;4478541;32;20427;-67
2022/01/14 10:44:38;;;;;;;4.30;1.27;;;21.30;49.40;;;;;;4478302;32;20162;-66
2022/01/14 10:47:19;;;;;;;5.80;1.48;;;21.20;49.50;;;;;;4491161;32;20125;-67
2022/01/14 10:49:46;;;;;;;6.13;1.88;;;21.10;49.70;;;;;;4491814;32;20121;-68
2022/01/14 10:52:19;;;;;;;4.20;1.33;;;21.00;49.90;;;;;;4480794;32;20129;-68
2022/01/14 10:54:48;;;;;;;4.15;1.08;;;20.90;50.00;;;;;;4479651;32;20299;-68
2022/01/14 10:57:19;;;;;;;6.30;1.27;;;20.80;50.40;;;;;;4481244;31;20238;-68
2022/01/14 10:59:46;;;;;;;8.30;1.70;;;20.70;50.30;;;;;;4481707;31;20152;-68
2022/01/14 11:02:31;;;;;;;6.32;1.42;;;20.70;50.30;;;;;;4480504;31;20129;-67
2022/01/14 11:05:19;;;;;;;5.97;1.00;;;20.60;50.50;;;;;;4480864;32;20186;-66
2022/01/14 11:07:46;;;;;;;7.15;1.45;;;20.60;50.60;;;;;;4481562;32;20156;-69
2022/01/14 11:10:20;;;;;;;6.68;1.40;;;20.60;50.70;;;;;;4480972;31;20153;-66
2022/01/14 11:12:47;;;;;;;5.07;1.60;;;20.50;50.80;;;;;;4493660;31;20133;-68
2022/01/14 11:15:14;;;;;;;6.85;1.38;;;20.50;50.70;;;;;;4481346;32;20125;-67
2022/01/14 11:17:43;;;;;;;6.10;1.50;;;20.50;50.80;;;;;;4480062;32;20159;-68
2022/01/14 11:20:11;;;;;;;5.40;1.40;;;20.40;50.80;;;;;;4479081;32;20121;-66
2022/01/14 11:25:23;;;;;;;6.00;1.25;;;20.40;51.10;;;;;;4481088;32;20179;-67
2022/01/14 11:27:53;;;;;;;6.35;1.58;;;20.40;51.20;;;;;;4481130;32;20125;-68
2022/01/14 11:30:20;;;;;;;6.68;1.55;;;20.40;51.30;;;;;;4493399;31;20125;-67
2022/01/14 11:32:58;;;;;;;6.50;1.42;;;20.40;51.40;;;;;;4482195;31;20136;-68
2022/01/14 11:35:25;;;;;;;10.20;1.67;;;20.40;51.20;;;;;;4481406;31;20137;-68
2022/01/14 11:37:55;;;;;;;5.05;1.40;;;20.40;51.20;;;;;;4480718;31;20129;-67
2022/01/14 11:40:21;;;;;;;7.35;1.75;;;20.30;51.00;;;;;;4480321;31;20622;-68
2022/01/14 11:43:05;;;;;;;4.50;1.52;;;20.30;50.90;;;;;;4479562;32;20231;-67
2022/01/14 11:45:45;;;;;;;8.40;1.70;;;20.30;52.00;;;;;;4480798;31;20203;-67
2022/01/14 11:48:46;;;;;;;10.70;1.63;;;20.30;51.20;;;;;;4478562;31;20129;-68
2022/01/14 11:51:15;;;;;;;7.60;1.70;;;20.30;51.20;;;;;;4473118;31;20661;-67
2022/01/14 11:53:42;;;;;;;9.48;1.67;;;20.30;51.20;;;;;;4480500;31;20131;-67
2022/01/14 11:56:31;;;;;;;5.10;1.40;;;20.30;51.20;;;;;;4479927;31;20135;-68
2022/01/14 11:59:23;;;;;;;9.13;1.50;;;20.30;51.30;;;;;;4476299;31;20161;-69
2022/01/14 12:01:51;;;;;;;8.30;1.50;;;20.30;51.40;;;;;;4479316;32;20156;-66
2022/01/14 12:04:17;;;;;;;6.88;1.50;;;20.30;51.40;;;;;;4480125;31;20128;-67
2022/01/14 12:06:49;;;;;;;6.00;1.20;;;20.30;51.30;;;;;;4480471;31;20129;-67
2022/01/14 12:09:19;;;;;;;7.13;1.40;;;20.30;51.30;;;;;;4480179;31;20283;-68
2022/01/14 12:11:45;;;;;;;5.82;1.35;;;20.30;51.20;;;;;;4480403;31;20137;-66
2022/01/14 12:14:12;;;;;;;8.25;1.60;;;20.30;51.20;;;;;;4480021;31;20145;-66
2022/01/14 12:16:48;;;;;;;5.20;1.60;;;20.30;51.20;;;;;;4479395;31;20168;-66
2022/01/14 12:19:17;;;;;;;7.47;1.65;;;20.30;51.20;;;;;;4479374;32;20598;-66
2022/01/14 12:21:54;;;;;;;9.38;1.58;;;20.30;51.20;;;;;;4478177;31;20125;-67
2022/01/14 12:24:27;;;;;;;5.20;1.80;;;20.30;51.20;;;;;;4479848;32;20547;-67
2022/01/14 12:27:10;;;;;;;5.72;1.52;;;20.30;51.10;;;;;;4480366;31;20132;-67
2022/01/14 12:29:40;;;;;;;8.23;1.90;;;20.30;51.10;;;;;;4480684;31;20129;-67
2022/01/14 12:32:10;;;;;;;4.82;1.35;;;20.30;51.10;;;;;;4480804;32;20144;-67
2022/01/14 12:34:39;;;;;;;8.98;1.63;;;20.40;51.10;;;;;;4479801;32;20202;-67
2022/01/14 12:37:06;;;;;;;5.72;1.40;;;20.40;51.00;;;;;;4480412;31;20125;-67
2022/01/14 12:39:32;;;;;;;5.68;1.30;;;20.40;51.00;;;;;;4492067;31;20149;-67
2022/01/14 12:42:00;;;;;;;6.22;1.67;;;20.40;51.00;;;;;;4480874;31;20125;-66
2022/01/14 12:44:27;;;;;;;7.57;1.67;;;20.40;51.00;;;;;;4492301;31;20770;-66
2022/01/14 12:47:01;;;;;;;6.82;1.48;;;20.40;51.00;;;;;;4480220;32;20153;-67
2022/01/14 12:49:34;;;;;;;9.15;1.52;;;20.40;51.00;;;;;;4481120;32;20125;-67
2022/01/14 12:52:05;;;;;;;12.32;1.90;;;20.30;51.00;;;;;;4480942;32;20137;-67
2022/01/14 12:54:32;;;;;;;8.38;2.25;;;20.40;51.30;;;;;;4467489;31;20191;-67
2022/01/14 12:56:58;;;;;;;5.22;2.00;;;20.30;51.30;;;;;;4480396;31;20691;-66
2022/01/14 12:59:25;;;;;;;7.63;1.90;;;20.30;51.30;;;;;;4479537;32;20124;-72
2022/01/14 13:01:55;;;;;;;8.10;1.70;;;20.30;51.30;;;;;;4479903;31;20140;-67
2022/01/14 13:04:23;;;;;;;7.68;1.90;;;20.30;51.40;;;;;;4492301;31;20129;-66
2022/01/14 13:06:53;;;;;;;7.07;1.80;;;20.30;51.50;;;;;;4479236;32;20199;-67
2022/01/14 13:09:24;;;;;;;9.80;2.13;;;20.20;51.60;;;;;;4479271;32;20303;-66
2022/01/14 13:11:59;;;;;;;10.25;1.55;;;20.20;51.80;;;;;;4481086;32;20133;-67
2022/01/14 13:14:26;;;;;;;8.32;1.92;;;20.20;52.00;;;;;;4479981;32;20142;-65
2022/01/14 13:16:53;;;;;;;8.40;1.70;;;20.20;53.00;;;;;;4479062;32;20137;-66
2022/01/14 13:19:24;;;;;;;8.20;1.83;;;20.20;52.00;;;;;;4479569;32;20132;-65